Latest Weather Observations for Cape Sorell

IDT60801

Issued at 7:35 pm EST Friday 25 April 2014 (issued every 30 minutes, with the page automatically refreshed every 10 minutes)

About weather observations | Map of weather stations | Latest weather observations for TAS | Other Formats
Station Details ID: 097000 Name: CAPE SORELL Lat: -42.20 Lon: 145.17 Height: 19.3 m
Data from the previous 72 hours. | See also: Recent months at Cape Sorell
Date/Time
EST
Temp
°C
App
Temp
°C
Dew
Point
Rel
Hum
%
Delta-T
°C
Wind Press
QNH
hPa
Press
MSL
hPa
Rain
since 9 am
mm
Dir
 
Spd
km/h
Gust
km/h
Spd
kts
Gust
kts
25/07:30pm 13.3 5.4 8.0 70 2.6 N 39 50 21 27 1007.9 - 0.0
25/07:00pm 13.5 4.2 7.5 67 2.9 N 46 54 25 29 1008.1 1008.1 0.0
25/06:30pm 13.6 4.9 7.8 68 2.9 N 43 52 23 28 1008.3 - 0.0
25/06:00pm 13.8 5.9 7.8 67 3.0 NNE 39 46 21 25 1009.1 1009.1 0.0
25/05:30pm 13.9 4.5 7.2 64 3.3 N 46 57 25 31 1009.3 - 0.0
25/05:00pm 13.9 4.5 7.0 63 3.4 N 46 59 25 32 1009.9 1009.9 0.0
25/04:30pm 14.1 5.3 7.2 63 3.4 N 43 52 23 28 1011.0 - 0.0
25/04:00pm 14.2 5.8 7.3 63 3.4 N 41 52 22 28 1011.2 1011.2 0.0
25/03:30pm 14.4 5.6 7.2 62 3.5 N 43 54 23 29 1011.1 - 0.0
25/03:00pm 14.3 6.2 6.9 61 3.6 N 39 50 21 27 1011.6 1011.6 0.0
25/02:30pm 14.2 6.1 7.0 62 3.5 N 39 48 21 26 1012.3 - 0.0
25/02:00pm 14.0 6.6 6.8 62 3.5 N 35 44 19 24 1012.8 1012.8 0.0
25/01:30pm 13.9 6.1 6.5 61 3.6 N 37 44 20 24 1013.4 - 0.0
25/01:00pm 13.9 4.9 6.5 61 3.6 N 43 52 23 28 1013.8 1013.8 0.0
25/12:30pm 13.7 4.5 6.3 61 3.5 N 44 52 24 28 1014.2 - 0.0
25/12:00pm 13.2 5.1 7.2 67 2.9 N 39 50 21 27 1015.0 1015.0 0.0
25/11:30am 13.0 3.6 7.0 67 2.9 N 46 56 25 30 1015.4 - 0.0
25/11:00am 12.9 4.4 6.9 67 2.9 N 41 52 22 28 1016.3 1016.2 0.0
25/10:30am 12.4 4.1 7.9 74 2.2 N 41 52 22 28 1016.6 - 0.0
25/10:00am 12.0 5.1 7.3 73 2.3 NNE 33 39 18 21 1016.9 1016.9 0.0
25/09:30am 11.8 5.5 7.5 75 2.1 N 30 35 16 19 1017.4 - 0.0
25/09:00am 11.5 4.8 7.4 76 2.0 NNE 32 39 17 21 1017.8 1017.8 0.8
25/08:30am 11.0 3.8 7.5 79 1.7 NNE 35 41 19 22 1017.8 - 0.8
25/08:00am 10.7 4.4 7.2 79 1.7 NNE 30 37 16 20 1017.8 1017.8 0.8
25/07:30am 10.7 4.4 7.6 81 1.5 NNE 30 35 16 19 1018.0 - 0.8
25/07:00am 10.6 4.4 7.7 82 1.4 NNE 30 35 16 19 1017.8 1017.8 0.8
25/06:30am 10.2 4.4 7.8 85 1.2 NNE 28 33 15 18 1017.9 - 0.8
25/06:00am 10.0 4.2 7.8 86 1.1 NNE 28 35 15 19 1017.9 1017.9 0.8
25/05:30am 10.9 5.8 7.6 80 1.6 N 24 30 13 16 1018.2 - 0.6
25/05:00am 10.9 5.5 7.8 81 1.5 N 26 35 14 19 1018.1 1018.1 0.4
25/04:30am 10.6 5.6 8.0 84 1.3 NNE 24 30 13 16 1017.9 - 0.4
25/04:00am 10.7 6.5 8.1 84 1.3 N 20 26 11 14 1018.2 1018.2 0.4
25/03:30am 11.0 7.3 8.1 82 1.4 N 17 22 9 12 1018.3 - 0.4
25/03:00am 10.7 6.0 7.9 83 1.4 N 22 32 12 17 1018.3 1018.3 0.4
25/02:30am 12.1 8.4 6.2 67 2.8 NNW 15 28 8 15 1018.5 - 0.4
25/02:00am 11.9 7.0 4.9 62 3.2 WNW 20 26 11 14 1018.4 1018.4 0.4
25/01:30am 11.3 6.6 5.0 65 2.9 W 19 28 10 15 1018.4 - 0.4
25/01:00am 11.0 6.5 6.2 72 2.2 W 19 28 10 15 1018.5 1018.5 0.4
25/12:30am 10.9 6.4 7.0 77 1.9 W 20 24 11 13 1018.5 - 0.4
25/12:00am 10.7 6.3 7.2 79 1.7 NW 20 24 11 13 1018.6 1018.6 0.4
 
Date/Time
EST
Temp
°C
App
Temp
°C
Dew
Point
Rel
Hum
%
Delta-T
°C
Wind Press
QNH
hPa
Press
MSL
hPa
Rain
since 9 am
mm
Dir
 
Spd
km/h
Gust
km/h
Spd
kts
Gust
kts
24/11:30pm 11.4 5.7 4.8 64 3.0 W 24 35 13 19 1018.6 - 0.2
24/11:00pm 11.4 6.7 5.3 66 2.8 W 19 28 10 15 1018.7 1018.7 0.2
24/10:30pm 11.2 6.6 5.7 69 2.5 W 19 28 10 15 1018.6 - 0.2
24/10:00pm 11.2 5.9 5.1 66 2.8 W 22 32 12 17 1018.5 1018.5 0.2
24/09:30pm 11.1 6.2 5.0 66 2.8 W 20 30 11 16 1018.3 - 0.2
24/09:00pm 11.2 6.3 5.3 67 2.7 W 20 30 11 16 1018.0 1018.0 0.2
24/08:30pm 10.9 5.5 4.4 64 2.9 W 22 33 12 18 1017.8 - 0.2
24/08:00pm 10.7 5.7 4.6 66 2.7 W 20 28 11 15 1017.4 1017.4 0.2
24/07:30pm 10.9 5.6 5.0 67 2.7 WSW 22 30 12 16 1017.3 - 0.2
24/07:00pm 10.9 5.3 5.4 69 2.5 WSW 24 32 13 17 1016.9 1016.9 0.2
24/06:30pm 10.6 4.1 4.5 66 2.7 WSW 28 35 15 19 1016.5 - 0.2
24/06:00pm 10.1 3.6 4.9 70 2.3 WSW 28 39 15 21 1016.0 1015.9 0.2
24/05:30pm 9.2 4.6 5.4 77 1.7 WSW 19 24 10 13 1015.8 - 0.2
24/05:17pm 9.4 2.1 5.4 76 1.8 WSW 33 56 18 30 1015.9 - 0.2
24/05:00pm 10.7 3.1 4.0 63 3.0 WSW 33 39 18 21 1015.3 1015.3 0.2
24/04:30pm 11.0 3.0 4.0 62 3.1 WSW 35 44 19 24 1014.9 - 0.2
24/04:00pm 11.6 3.3 4.3 61 3.3 WSW 37 44 20 24 1014.4 1014.4 0.2
24/03:30pm 11.6 3.8 3.1 56 3.7 WSW 33 43 18 23 1014.1 - 0.2
24/03:00pm 11.4 4.8 4.2 61 3.2 WSW 28 46 15 25 1013.7 1013.7 0.2
24/02:30pm 11.4 3.6 4.8 64 3.0 WSW 35 43 19 23 1013.3 - 0.2
24/02:00pm 11.9 3.2 4.2 59 3.5 WSW 39 50 21 27 1012.9 1012.9 0.2
24/01:30pm 11.9 3.3 4.6 61 3.3 WSW 39 48 21 26 1012.3 - 0.2
24/01:00pm 11.5 2.0 4.7 63 3.1 WSW 44 52 24 28 1011.9 1011.9 0.2
24/12:30pm 11.0 1.1 4.7 65 2.8 WSW 46 57 25 31 1011.5 - 0.2
24/12:00pm 11.7 1.3 6.2 69 2.6 WSW 50 57 27 31 1010.9 1010.9 0.2
24/11:30am 11.4 1.9 5.1 65 2.9 WSW 44 54 24 29 1010.4 - 0.2
24/11:00am 11.7 1.7 6.2 69 2.6 SW 48 59 26 32 1009.8 1009.8 0.2
24/10:30am 11.6 0.7 5.5 66 2.8 WSW 52 65 28 35 1008.8 - 0.2
24/10:19am 11.2 1.4 5.3 67 2.7 WSW 46 69 25 37 1008.4 - 0.2
24/10:00am 10.9 2.1 5.7 70 2.4 WSW 41 48 22 26 1008.5 1008.5 0.0
24/09:30am 9.9 -1.4 5.3 73 2.1 WSW 54 67 29 36 1007.7 - 0.0
24/09:01am 9.6 -2.6 7.5 87 1.0 WSW 61 74 33 40 1006.7 - 0.0
24/09:00am 9.2 1.5 7.0 86 1.0 WSW 37 70 20 38 1007.1 1007.1 16.8
24/08:36am 10.1 0.2 6.6 79 1.6 WSW 48 67 26 36 1006.8 - 16.4
24/08:30am 9.6 -0.4 6.0 78 1.7 WSW 48 59 26 32 1006.6 - 16.4
24/08:19am 10.5 3.2 7.2 80 1.6 WSW 35 63 19 34 1006.2 - 16.4
24/08:00am 10.1 0.7 7.2 82 1.4 SW 46 54 25 29 1005.9 1005.9 16.4
24/07:30am 9.1 -0.2 6.0 81 1.4 SW 44 57 24 31 1005.4 - 16.4
24/07:28am 9.1 -0.6 5.8 80 1.5 SW 46 57 25 31 1005.2 - 16.4
24/07:16am 10.3 -4.3 6.1 75 1.9 WSW 72 78 39 42 1004.1 - 16.4
24/07:09am 10.9 0.2 6.3 73 2.2 WSW 52 80 28 43 1003.8 - 16.4
24/07:00am 11.0 1.1 6.6 74 2.1 WSW 48 59 26 32 1004.3 1004.3 16.4
24/06:30am 11.1 1.7 7.0 76 2.0 WSW 46 56 25 30 1003.8 - 16.4
24/06:10am 10.6 -0.5 6.4 75 2.0 WSW 54 74 29 40 1003.6 - 16.4
24/06:00am 11.0 -0.4 6.7 75 2.0 WSW 56 69 30 37 1003.0 1003.0 16.4
24/05:30am 11.3 0.4 7.4 77 1.9 WSW 54 65 29 35 1002.5 - 16.4
24/05:00am 11.7 2.4 9.1 84 1.3 WSW 48 59 26 32 1002.1 1002.1 16.4
24/04:30am 11.9 2.2 9.1 83 1.4 WSW 50 63 27 34 1000.8 - 16.2
24/04:18am 11.9 4.6 10.1 89 0.9 W 39 52 21 28 1001.5 - 16.0
24/04:01am 11.3 5.7 10.0 92 0.7 WNW 30 50 16 27 1001.2 - 16.0
24/04:00am 11.2 5.9 10.0 92 0.6 NW 28 43 15 23 1001.2 1001.2 16.0
24/03:51am 11.2 7.5 10.1 93 0.6 NW 20 26 11 14 1001.1 - 16.0
24/03:30am 10.4 2.9 9.3 93 0.5 W 39 59 21 32 1001.7 - 15.8
24/03:11am 11.1 3.7 10.0 93 0.6 W 39 69 21 37 1001.3 - 15.2
24/03:00am 11.3 5.4 10.4 94 0.5 W 32 50 17 27 1001.3 1001.3 14.2
24/02:30am 11.2 1.6 10.7 97 0.3 WSW 52 74 28 40 1000.3 - 13.0
24/02:00am 12.2 4.2 10.3 88 1.0 WSW 43 63 23 34 1000.1 1000.1 9.4
24/01:58am 14.4 10.4 13.1 92 0.7 NNW 26 39 14 21 1000.8 - 9.0
24/01:44am 14.8 6.3 13.2 90 0.9 N 50 69 27 37 999.7 - 8.0
24/01:30am 14.4 5.5 13.0 91 0.8 N 52 65 28 35 999.8 - 8.0
24/01:00am 14.5 5.2 12.9 90 0.9 N 54 69 29 37 1000.2 1000.2 7.6
24/12:30am 14.0 4.2 12.7 92 0.7 N 56 69 30 37 1000.8 - 7.6
24/12:00am 13.7 4.4 12.9 95 0.4 N 54 65 29 35 1002.0 1002.0 7.6
 
Date/Time
EST
Temp
°C
App
Temp
°C
Dew
Point
Rel
Hum
%
Delta-T
°C
Wind Press
QNH
hPa
Press
MSL
hPa
Rain
since 9 am
mm
Dir
 
Spd
km/h
Gust
km/h
Spd
kts
Gust
kts
23/11:30pm 13.5 3.6 13.0 97 0.3 N 57 70 31 38 1002.7 - 7.6
23/11:08pm 13.4 5.2 12.8 96 0.3 N 48 67 26 36 1003.2 - 6.0
23/11:00pm 13.5 4.1 12.7 95 0.4 N 54 67 29 36 1003.1 1003.1 4.6
23/10:36pm 13.5 4.1 12.7 95 0.4 N 54 74 29 40 1003.5 - 3.8
23/10:30pm 13.4 5.1 12.6 95 0.4 N 48 65 26 35 1003.7 - 3.4
23/10:00pm 13.7 5.1 12.8 94 0.5 N 50 65 27 35 1004.4 1004.4 2.4
23/09:30pm 13.4 4.6 12.3 93 0.6 N 50 61 27 33 1005.2 - 2.4
23/09:00pm 14.2 5.2 11.5 84 1.4 N 50 59 27 32 1005.1 1005.1 0.4
23/08:30pm 13.8 5.8 11.1 84 1.4 N 44 56 24 30 1005.8 - 0.4
23/08:00pm 14.3 6.9 11.3 82 1.6 N 41 50 22 27 1006.4 1006.4 0.4
23/07:30pm 14.4 6.4 11.0 80 1.8 N 44 52 24 28 1006.6 - 0.2
23/07:00pm 14.2 6.1 10.6 79 1.9 N 44 56 24 30 1006.7 1006.7 0.2
23/06:30pm 14.9 7.0 10.7 76 2.2 N 43 52 23 28 1007.2 - 0.2
23/06:00pm 14.9 6.8 10.1 73 2.5 N 43 52 23 28 1007.3 1007.3 0.2
23/05:30pm 14.9 6.7 9.7 71 2.7 N 43 54 23 29 1007.5 - 0.2
23/05:00pm 15.1 7.0 8.8 66 3.2 N 41 52 22 28 1007.8 1007.8 0.2
23/04:30pm 15.0 7.4 8.9 67 3.1 N 39 56 21 30 1008.2 - 0.2
23/04:00pm 15.1 8.2 8.8 66 3.2 N 35 48 19 26 1008.5 1008.5 0.2
23/03:30pm 15.1 8.1 8.6 65 3.3 N 35 50 19 27 1008.6 - 0.2
23/03:00pm 15.5 8.3 9.2 66 3.2 NNW 37 48 20 26 1008.9 1008.9 0.2
23/02:30pm 15.2 6.9 10.0 71 2.7 N 44 54 24 29 1008.9 - 0.2
23/02:00pm 15.5 8.3 9.0 65 3.3 N 37 48 20 26 1009.5 1009.5 0.2
23/01:30pm 15.1 7.2 9.2 68 3.0 N 41 48 22 26 1009.9 - 0.2
23/01:00pm 14.9 6.5 8.8 67 3.1 N 43 52 23 28 1010.4 1010.4 0.2
23/12:30pm 14.7 6.3 8.9 68 3.0 N 43 50 23 27 1010.9 - 0.2
23/12:00pm 14.7 7.3 9.7 72 2.6 N 39 48 21 26 1011.4 1011.4 0.2
23/11:30am 14.3 8.1 9.9 75 2.3 N 33 44 18 24 1011.9 - 0.2
23/11:00am 14.0 7.7 9.6 75 2.3 N 33 41 18 22 1012.3 1012.3 0.2
23/10:30am 13.7 8.4 9.9 78 2.0 N 28 37 15 20 1012.6 - 0.2
23/10:00am 14.1 7.9 9.9 76 2.2 N 33 41 18 22 1012.8 1012.8 0.2
23/09:30am 13.1 7.8 9.9 81 1.6 NNE 28 33 15 18 1013.1 - 0.2
23/09:00am 12.7 6.5 9.9 83 1.4 N 33 37 18 20 1013.0 1013.0 0.6
23/08:30am 12.3 6.7 10.0 86 1.2 NNE 30 39 16 21 1013.2 - 0.6
23/08:00am 11.8 6.9 9.9 88 1.0 NNE 26 30 14 16 1013.3 1013.3 0.6
23/07:30am 11.6 6.7 10.0 90 0.8 NNE 26 32 14 17 1013.3 - 0.6
23/07:00am 12.3 7.4 9.9 85 1.2 NNE 26 33 14 18 1013.1 1013.1 0.6
23/06:30am 13.6 9.3 9.5 76 2.1 N 22 30 12 16 1013.1 - 0.6
23/06:00am 13.2 9.9 8.1 71 2.5 N 15 20 8 11 1013.3 1013.3 0.6
23/05:30am 12.4 9.0 7.5 72 2.4 NW 15 20 8 11 1013.6 - 0.6
23/05:00am 12.6 9.1 7.1 69 2.7 NNW 15 19 8 10 1013.7 1013.7 0.6
23/04:30am 12.4 8.4 9.2 81 1.6 NW 20 30 11 16 1013.6 - 0.6
23/04:00am 11.9 8.5 9.3 84 1.3 W 17 22 9 12 1013.6 1013.6 0.6
23/03:30am 11.9 7.3 9.8 87 1.1 WSW 24 30 13 16 1013.6 - 0.6
23/03:08am 12.5 5.5 9.9 84 1.3 W 37 52 20 28 1013.2 - 0.4
23/03:00am 12.8 8.8 9.1 78 1.9 NW 20 28 11 15 1013.6 1013.6 0.4
23/02:30am 12.1 10.7 8.9 81 1.6 N 6 11 3 6 1013.7 - 0.4
23/02:00am 11.7 10.1 8.7 82 1.5 W 7 11 4 6 1014.1 1014.1 0.4
23/01:30am 11.8 9.6 9.2 84 1.3 WSW 11 15 6 8 1014.1 - 0.4
23/01:00am 12.0 10.6 9.6 85 1.2 W 7 13 4 7 1014.1 1014.1 0.4
23/12:30am 12.2 10.4 9.4 83 1.4 W 9 13 5 7 1014.2 - 0.4
23/12:00am 12.6 9.1 8.9 78 1.9 WNW 17 22 9 12 1014.3 1014.3 0.2
 
Date/Time
EST
Temp
°C
App
Temp
°C
Dew
Point
Rel
Hum
%
Delta-T
°C
Wind Press
QNH
hPa
Press
MSL
hPa
Rain
since 9 am
mm
Dir
 
Spd
km/h
Gust
km/h
Spd
kts
Gust
kts
22/11:30pm 13.6 9.9 9.5 76 2.1 W 19 24 10 13 1014.3 - 0.2
22/11:00pm 13.4 9.8 8.5 72 2.4 W 17 26 9 14 1014.3 1014.3 0.2
22/10:30pm 13.4 9.5 8.7 73 2.4 W 19 24 10 13 1014.3 - 0.2
22/10:00pm 13.5 9.6 8.8 73 2.4 W 19 24 10 13 1014.3 1014.3 0.2
22/09:30pm 13.2 8.4 8.9 75 2.2 W 24 33 13 18 1014.2 - 0.2
22/09:00pm 12.9 7.5 9.5 80 1.7 WSW 28 32 15 17 1014.1 1014.1 0.2
22/08:30pm 12.9 6.5 9.5 80 1.7 WSW 33 41 18 22 1013.8 - 0.2
22/08:00pm 13.6 7.1 8.2 70 2.7 WSW 32 39 17 21 1013.4 1013.4 0.2

Other Formats:

Comma delimited format used in spreadsheet applications
http://www.bom.gov.au/fwo/IDT60801/IDT60801.94974.axf

JavaScript Object Notation format (JSON) in row-major order
http://www.bom.gov.au/fwo/IDT60801/IDT60801.94974.json